sensor_id;sensor_type;location;lat;lon;timestamp;temperature;humidity
63202;DHT22;49296;48.188;11.566;2023-05-17T00:01:15;9.71;70.21
63202;DHT22;49296;48.188;11.566;2023-05-17T00:03:42;9.76;70.75
63202;DHT22;49296;48.188;11.566;2023-05-17T00:06:09;9.79;70.96
63202;DHT22;49296;48.188;11.566;2023-05-17T00:08:37;9.81;70.72
63202;DHT22;49296;48.188;11.566;2023-05-17T00:11:03;9.89;71.82
63202;DHT22;49296;48.188;11.566;2023-05-17T00:13:30;9.78;70.42
63202;DHT22;49296;48.188;11.566;2023-05-17T00:15:56;9.78;71.09
63202;DHT22;49296;48.188;11.566;2023-05-17T00:18:23;9.79;71.54
63202;DHT22;49296;48.188;11.566;2023-05-17T00:20:50;9.61;70.98
63202;DHT22;49296;48.188;11.566;2023-05-17T00:23:16;9.65;70.98
63202;DHT22;49296;48.188;11.566;2023-05-17T00:25:44;9.66;70.96
63202;DHT22;49296;48.188;11.566;2023-05-17T00:28:11;9.68;70.47
63202;DHT22;49296;48.188;11.566;2023-05-17T00:30:37;9.61;70.62
63202;DHT22;49296;48.188;11.566;2023-05-17T00:33:04;9.73;71.64
63202;DHT22;49296;48.188;11.566;2023-05-17T00:35:31;9.82;70.32
63202;DHT22;49296;48.188;11.566;2023-05-17T00:37:57;9.66;71.15
63202;DHT22;49296;48.188;11.566;2023-05-17T00:40:24;9.58;70.27
63202;DHT22;49296;48.188;11.566;2023-05-17T00:42:52;9.66;70.84
63202;DHT22;49296;48.188;11.566;2023-05-17T00:45:19;9.56;70.66
63202;DHT22;49296;48.188;11.566;2023-05-17T00:47:45;9.66;70.02
63202;DHT22;49296;48.188;11.566;2023-05-17T00:50:12;9.71;70.21
63202;DHT22;49296;48.188;11.566;2023-05-17T00:52:39;9.65;70.75
63202;DHT22;49296;48.188;11.566;2023-05-17T00:55:06;9.71;71.06
63202;DHT22;49296;48.188;11.566;2023-05-17T00:57:34;9.56;70.02
63202;DHT22;49296;48.188;11.566;2023-05-17T01:00:02;9.58;70.23
63202;DHT22;49296;48.188;11.566;2023-05-17T01:02:29;9.63;70.67
63202;DHT22;49296;48.188;11.566;2023-05-17T01:04:56;9.61;70.52
63202;DHT22;49296;48.188;11.566;2023-05-17T01:07:23;9.66;70.37
63202;DHT22;49296;48.188;11.566;2023-05-17T01:09:50;9.63;70.61
63202;DHT22;49296;48.188;11.566;2023-05-17T01:12:23;9.61;69.88
63202;DHT22;49296;48.188;11.566;2023-05-17T01:15:00;9.61;70.28
63202;DHT22;49296;48.188;11.566;2023-05-17T01:17:39;9.56;70.08
63202;DHT22;49296;48.188;11.566;2023-05-17T01:20:14;9.58;69.92
63202;DHT22;49296;48.188;11.566;2023-05-17T01:22:50;9.45;70.12
63202;DHT22;49296;48.188;11.566;2023-05-17T01:25:27;9.54;70.73
63202;DHT22;49296;48.188;11.566;2023-05-17T01:28:00;9.58;70.08
63202;DHT22;49296;48.188;11.566;2023-05-17T01:30:28;9.62;70.68
63202;DHT22;49296;48.188;11.566;2023-05-17T01:32:58;9.55;70.19
63202;DHT22;49296;48.188;11.566;2023-05-17T01:35:25;9.58;70.52
63202;DHT22;49296;48.188;11.566;2023-05-17T01:37:52;9.68;71.11
63202;DHT22;49296;48.188;11.566;2023-05-17T01:40:20;9.56;70.69
63202;DHT22;49296;48.188;11.566;2023-05-17T01:42:49;9.51;70.81
63202;DHT22;49296;48.188;11.566;2023-05-17T01:45:22;9.65;71.25
63202;DHT22;49296;48.188;11.566;2023-05-17T01:47:58;9.62;71.91
63202;DHT22;49296;48.188;11.566;2023-05-17T01:50:28;9.65;71.83
63202;DHT22;49296;48.188;11.566;2023-05-17T01:53:01;9.58;71.67
63202;DHT22;49296;48.188;11.566;2023-05-17T01:55:34;9.42;72.40
63202;DHT22;49296;48.188;11.566;2023-05-17T01:58:06;9.37;72.70
63202;DHT22;49296;48.188;11.566;2023-05-17T02:00:35;9.42;73.00
63202;DHT22;49296;48.188;11.566;2023-05-17T02:03:04;9.56;73.11
63202;DHT22;49296;48.188;11.566;2023-05-17T02:05:30;9.44;72.86
63202;DHT22;49296;48.188;11.566;2023-05-17T02:07:57;9.49;73.28
63202;DHT22;49296;48.188;11.566;2023-05-17T02:10:24;9.58;73.11
63202;DHT22;49296;48.188;11.566;2023-05-17T02:12:50;9.52;73.08
63202;DHT22;49296;48.188;11.566;2023-05-17T02:15:17;9.31;73.21
63202;DHT22;49296;48.188;11.566;2023-05-17T02:17:45;9.31;73.42
63202;DHT22;49296;48.188;11.566;2023-05-17T02:20:12;9.37;73.65
63202;DHT22;49296;48.188;11.566;2023-05-17T02:22:38;9.37;73.55
63202;DHT22;49296;48.188;11.566;2023-05-17T02:25:06;9.23;73.76
63202;DHT22;49296;48.188;11.566;2023-05-17T02:27:33;9.26;74.08
63202;DHT22;49296;48.188;11.566;2023-05-17T02:29:59;9.13;73.81
63202;DHT22;49296;48.188;11.566;2023-05-17T02:32:26;9.09;73.84
63202;DHT22;49296;48.188;11.566;2023-05-17T02:34:55;9.07;74.03
63202;DHT22;49296;48.188;11.566;2023-05-17T02:37:21;9.17;74.49
63202;DHT22;49296;48.188;11.566;2023-05-17T02:39:48;9.21;74.20
63202;DHT22;49296;48.188;11.566;2023-05-17T02:42:15;9.16;73.24
63202;DHT22;49296;48.188;11.566;2023-05-17T02:44:41;9.07;73.00
63202;DHT22;49296;48.188;11.566;2023-05-17T02:47:08;8.92;73.28
63202;DHT22;49296;48.188;11.566;2023-05-17T02:49:35;8.78;73.17
63202;DHT22;49296;48.188;11.566;2023-05-17T02:52:03;8.87;72.90
63202;DHT22;49296;48.188;11.566;2023-05-17T02:54:30;9.03;73.23
63202;DHT22;49296;48.188;11.566;2023-05-17T02:56:56;9.02;72.10
63202;DHT22;49296;48.188;11.566;2023-05-17T02:59:23;9.09;72.59
63202;DHT22;49296;48.188;11.566;2023-05-17T03:01:50;8.97;72.12
63202;DHT22;49296;48.188;11.566;2023-05-17T03:04:16;8.82;72.25
63202;DHT22;49296;48.188;11.566;2023-05-17T03:06:44;8.87;72.42
63202;DHT22;49296;48.188;11.566;2023-05-17T03:09:12;8.89;72.17
63202;DHT22;49296;48.188;11.566;2023-05-17T03:11:39;8.85;71.89
63202;DHT22;49296;48.188;11.566;2023-05-17T03:14:05;8.96;72.49
63202;DHT22;49296;48.188;11.566;2023-05-17T03:16:32;8.85;71.48
63202;DHT22;49296;48.188;11.566;2023-05-17T03:18:59;8.90;71.26
63202;DHT22;49296;48.188;11.566;2023-05-17T03:21:26;8.87;71.23
63202;DHT22;49296;48.188;11.566;2023-05-17T03:23:52;8.85;70.93
63202;DHT22;49296;48.188;11.566;2023-05-17T03:26:20;8.93;71.00
63202;DHT22;49296;48.188;11.566;2023-05-17T03:28:48;9.02;71.06
63202;DHT22;49296;48.188;11.566;2023-05-17T03:31:15;9.00;71.03
63202;DHT22;49296;48.188;11.566;2023-05-17T03:33:43;9.07;71.17
63202;DHT22;49296;48.188;11.566;2023-05-17T03:36:09;8.99;69.65
63202;DHT22;49296;48.188;11.566;2023-05-17T03:38:36;8.83;68.88
63202;DHT22;49296;48.188;11.566;2023-05-17T03:41:03;8.86;69.64
63202;DHT22;49296;48.188;11.566;2023-05-17T03:43:31;8.82;69.85
63202;DHT22;49296;48.188;11.566;2023-05-17T03:45:58;8.86;70.23
63202;DHT22;49296;48.188;11.566;2023-05-17T03:48:25;8.76;69.73
63202;DHT22;49296;48.188;11.566;2023-05-17T03:50:51;8.95;70.22
63202;DHT22;49296;48.188;11.566;2023-05-17T03:53:18;8.76;69.38
63202;DHT22;49296;48.188;11.566;2023-05-17T03:55:45;8.83;69.45
63202;DHT22;49296;48.188;11.566;2023-05-17T03:58:11;8.90;69.07
63202;DHT22;49296;48.188;11.566;2023-05-17T04:00:39;8.93;69.25
63202;DHT22;49296;48.188;11.566;2023-05-17T04:03:06;8.82;69.11
63202;DHT22;49296;48.188;11.566;2023-05-17T04:05:33;9.02;69.36
63202;DHT22;49296;48.188;11.566;2023-05-17T04:07:59;8.93;68.49
63202;DHT22;49296;48.188;11.566;2023-05-17T04:10:26;9.00;69.27
63202;DHT22;49296;48.188;11.566;2023-05-17T04:12:53;9.09;70.05
63202;DHT22;49296;48.188;11.566;2023-05-17T04:15:19;8.90;68.76
63202;DHT22;49296;48.188;11.566;2023-05-17T04:17:47;8.90;68.76
63202;DHT22;49296;48.188;11.566;2023-05-17T04:20:14;9.02;69.16
63202;DHT22;49296;48.188;11.566;2023-05-17T04:22:41;9.13;68.73
63202;DHT22;49296;48.188;11.566;2023-05-17T04:25:08;9.10;68.51
63202;DHT22;49296;48.188;11.566;2023-05-17T04:27:35;9.14;69.07
63202;DHT22;49296;48.188;11.566;2023-05-17T04:30:01;9.30;69.91
63202;DHT22;49296;48.188;11.566;2023-05-17T04:32:28;9.26;68.83
63202;DHT22;49296;48.188;11.566;2023-05-17T04:34:56;9.34;68.91
63202;DHT22;49296;48.188;11.566;2023-05-17T04:37:23;9.27;68.24
63202;DHT22;49296;48.188;11.566;2023-05-17T04:39:50;9.10;68.32
63202;DHT22;49296;48.188;11.566;2023-05-17T04:42:17;8.95;68.41
63202;DHT22;49296;48.188;11.566;2023-05-17T04:44:43;8.96;68.68
63202;DHT22;49296;48.188;11.566;2023-05-17T04:47:11;9.09;68.52
63202;DHT22;49296;48.188;11.566;2023-05-17T04:49:37;9.06;68.60
63202;DHT22;49296;48.188;11.566;2023-05-17T04:52:06;9.21;69.44
63202;DHT22;49296;48.188;11.566;2023-05-17T04:54:32;9.35;69.38
63202;DHT22;49296;48.188;11.566;2023-05-17T04:56:59;9.32;67.81
63202;DHT22;49296;48.188;11.566;2023-05-17T04:59:26;9.17;67.62
63202;DHT22;49296;48.188;11.566;2023-05-17T05:01:52;9.24;68.54
63202;DHT22;49296;48.188;11.566;2023-05-17T05:04:19;9.26;68.04
63202;DHT22;49296;48.188;11.566;2023-05-17T05:06:46;9.35;68.25
63202;DHT22;49296;48.188;11.566;2023-05-17T05:09:14;9.19;67.99
63202;DHT22;49296;48.188;11.566;2023-05-17T05:11:41;9.26;67.62
63202;DHT22;49296;48.188;11.566;2023-05-17T05:14:07;9.23;67.12
63202;DHT22;49296;48.188;11.566;2023-05-17T05:16:34;9.30;67.47
63202;DHT22;49296;48.188;11.566;2023-05-17T05:19:01;9.31;68.00
63202;DHT22;49296;48.188;11.566;2023-05-17T05:21:29;9.35;67.00
63202;DHT22;49296;48.188;11.566;2023-05-17T05:23:55;9.44;67.10
63202;DHT22;49296;48.188;11.566;2023-05-17T05:26:23;9.63;67.22
63202;DHT22;49296;48.188;11.566;2023-05-17T05:28:50;9.54;66.26
63202;DHT22;49296;48.188;11.566;2023-05-17T05:31:17;9.55;66.75
63202;DHT22;49296;48.188;11.566;2023-05-17T05:33:43;9.54;66.90
63202;DHT22;49296;48.188;11.566;2023-05-17T05:36:10;9.58;66.17
63202;DHT22;49296;48.188;11.566;2023-05-17T05:38:36;9.42;66.23
63202;DHT22;49296;48.188;11.566;2023-05-17T05:41:03;9.56;66.51
63202;DHT22;49296;48.188;11.566;2023-05-17T05:43:31;9.71;66.65
63202;DHT22;49296;48.188;11.566;2023-05-17T05:46:00;9.47;66.25
63202;DHT22;49296;48.188;11.566;2023-05-17T05:48:26;9.71;66.47
63202;DHT22;49296;48.188;11.566;2023-05-17T05:50:53;9.82;65.97
63202;DHT22;49296;48.188;11.566;2023-05-17T05:53:20;9.87;66.23
63202;DHT22;49296;48.188;11.566;2023-05-17T05:55:46;9.69;65.98
63202;DHT22;49296;48.188;11.566;2023-05-17T05:58:13;9.73;65.70
63202;DHT22;49296;48.188;11.566;2023-05-17T06:00:41;9.73;66.11
63202;DHT22;49296;48.188;11.566;2023-05-17T06:03:08;9.75;65.56
63202;DHT22;49296;48.188;11.566;2023-05-17T06:05:35;9.68;66.03
63202;DHT22;49296;48.188;11.566;2023-05-17T06:08:02;9.61;65.62
63202;DHT22;49296;48.188;11.566;2023-05-17T06:10:29;9.52;65.78
63202;DHT22;49296;48.188;11.566;2023-05-17T06:12:55;9.41;65.93
63202;DHT22;49296;48.188;11.566;2023-05-17T06:15:22;9.45;66.19
63202;DHT22;49296;48.188;11.566;2023-05-17T06:17:50;9.52;66.11
63202;DHT22;49296;48.188;11.566;2023-05-17T06:20:17;9.65;65.47
63202;DHT22;49296;48.188;11.566;2023-05-17T06:22:43;9.49;65.54
63202;DHT22;49296;48.188;11.566;2023-05-17T06:25:10;9.34;65.37
63202;DHT22;49296;48.188;11.566;2023-05-17T06:27:37;9.39;65.91
63202;DHT22;49296;48.188;11.566;2023-05-17T06:30:04;9.55;65.94
63202;DHT22;49296;48.188;11.566;2023-05-17T06:32:31;9.42;65.40
63202;DHT22;49296;48.188;11.566;2023-05-17T06:34:59;9.35;65.43
63202;DHT22;49296;48.188;11.566;2023-05-17T06:37:26;9.39;65.60
63202;DHT22;49296;48.188;11.566;2023-05-17T06:40:00;9.65;65.96
63202;DHT22;49296;48.188;11.566;2023-05-17T06:42:28;9.78;66.33
63202;DHT22;49296;48.188;11.566;2023-05-17T06:44:55;9.97;66.22
63202;DHT22;49296;48.188;11.566;2023-05-17T06:47:21;10.13;65.11
63202;DHT22;49296;48.188;11.566;2023-05-17T06:49:48;10.22;64.23
63202;DHT22;49296;48.188;11.566;2023-05-17T06:52:16;10.33;64.12
63202;DHT22;49296;48.188;11.566;2023-05-17T06:54:43;10.11;63.91
63202;DHT22;49296;48.188;11.566;2023-05-17T06:57:10;10.22;64.09
63202;DHT22;49296;48.188;11.566;2023-05-17T06:59:36;9.89;64.37
63202;DHT22;49296;48.188;11.566;2023-05-17T07:02:03;9.86;64.71
63202;DHT22;49296;48.188;11.566;2023-05-17T07:04:30;9.96;65.22
63202;DHT22;49296;48.188;11.566;2023-05-17T07:06:57;10.03;64.52
63202;DHT22;49296;48.188;11.566;2023-05-17T07:09:24;10.07;64.63
63202;DHT22;49296;48.188;11.566;2023-05-17T07:11:51;10.11;64.83
63202;DHT22;49296;48.188;11.566;2023-05-17T07:14:18;9.99;63.87
63202;DHT22;49296;48.188;11.566;2023-05-17T07:16:44;10.20;64.06
63202;DHT22;49296;48.188;11.566;2023-05-17T07:19:12;10.35;63.55
63202;DHT22;49296;48.188;11.566;2023-05-17T07:21:38;10.49;64.64
63202;DHT22;49296;48.188;11.566;2023-05-17T07:24:06;10.53;64.21
63202;DHT22;49296;48.188;11.566;2023-05-17T07:26:35;10.53;64.25
63202;DHT22;49296;48.188;11.566;2023-05-17T07:29:01;10.42;63.35
63202;DHT22;49296;48.188;11.566;2023-05-17T07:31:28;10.35;63.77
63202;DHT22;49296;48.188;11.566;2023-05-17T07:33:55;10.34;64.25
63202;DHT22;49296;48.188;11.566;2023-05-17T07:36:21;10.37;63.49
63202;DHT22;49296;48.188;11.566;2023-05-17T07:38:48;10.52;63.83
63202;DHT22;49296;48.188;11.566;2023-05-17T07:41:14;10.59;63.75
63202;DHT22;49296;48.188;11.566;2023-05-17T07:43:47;10.63;63.54
63202;DHT22;49296;48.188;11.566;2023-05-17T07:46:14;10.61;63.25
63202;DHT22;49296;48.188;11.566;2023-05-17T07:48:40;10.48;63.61
63202;DHT22;49296;48.188;11.566;2023-05-17T07:51:07;10.31;63.96
63202;DHT22;49296;48.188;11.566;2023-05-17T07:53:34;10.27;62.87
63202;DHT22;49296;48.188;11.566;2023-05-17T07:56:00;10.24;63.51
63202;DHT22;49296;48.188;11.566;2023-05-17T07:58:27;10.30;63.74
63202;DHT22;49296;48.188;11.566;2023-05-17T08:00:55;10.27;62.76
63202;DHT22;49296;48.188;11.566;2023-05-17T08:03:22;10.25;62.65
63202;DHT22;49296;48.188;11.566;2023-05-17T08:05:48;10.21;63.38
63202;DHT22;49296;48.188;11.566;2023-05-17T08:08:15;10.42;64.40
63202;DHT22;49296;48.188;11.566;2023-05-17T08:10:41;10.37;63.15
63202;DHT22;49296;48.188;11.566;2023-05-17T08:13:08;10.46;62.85
63202;DHT22;49296;48.188;11.566;2023-05-17T08:15:35;10.38;61.78
63202;DHT22;49296;48.188;11.566;2023-05-17T08:18:03;10.35;62.48
63202;DHT22;49296;48.188;11.566;2023-05-17T08:20:30;10.55;62.61
63202;DHT22;49296;48.188;11.566;2023-05-17T08:22:56;10.62;64.20
63202;DHT22;49296;48.188;11.566;2023-05-17T08:25:23;10.59;63.08
63202;DHT22;49296;48.188;11.566;2023-05-17T08:27:50;10.65;62.53
63202;DHT22;49296;48.188;11.566;2023-05-17T08:30:16;10.77;61.70
63202;DHT22;49296;48.188;11.566;2023-05-17T08:32:43;10.87;61.09
63202;DHT22;49296;48.188;11.566;2023-05-17T08:35:11;11.01;59.12
63202;DHT22;49296;48.188;11.566;2023-05-17T08:37:38;11.01;59.67
63202;DHT22;49296;48.188;11.566;2023-05-17T08:40:05;11.15;59.60
63202;DHT22;49296;48.188;11.566;2023-05-17T08:42:32;11.31;60.90
63202;DHT22;49296;48.188;11.566;2023-05-17T08:45:00;11.36;60.21
63202;DHT22;49296;48.188;11.566;2023-05-17T08:47:27;11.36;59.90
63202;DHT22;49296;48.188;11.566;2023-05-17T08:49:58;11.39;59.99
63202;DHT22;49296;48.188;11.566;2023-05-17T08:52:29;11.21;60.29
63202;DHT22;49296;48.188;11.566;2023-05-17T08:54:56;10.93;59.82
63202;DHT22;49296;48.188;11.566;2023-05-17T08:57:26;11.01;60.58
63202;DHT22;49296;48.188;11.566;2023-05-17T08:59:53;11.13;61.35
63202;DHT22;49296;48.188;11.566;2023-05-17T09:02:22;11.27;61.13
63202;DHT22;49296;48.188;11.566;2023-05-17T09:04:48;11.34;59.76
63202;DHT22;49296;48.188;11.566;2023-05-17T09:07:20;11.39;59.74
63202;DHT22;49296;48.188;11.566;2023-05-17T09:09:49;11.55;60.09
63202;DHT22;49296;48.188;11.566;2023-05-17T09:12:17;11.36;57.67
63202;DHT22;49296;48.188;11.566;2023-05-17T09:14:43;11.43;57.71
63202;DHT22;49296;48.188;11.566;2023-05-17T09:17:13;11.58;58.62
63202;DHT22;49296;48.188;11.566;2023-05-17T09:19:42;11.72;59.04
63202;DHT22;49296;48.188;11.566;2023-05-17T09:22:11;11.98;58.33
63202;DHT22;49296;48.188;11.566;2023-05-17T09:24:39;12.14;58.28
63202;DHT22;49296;48.188;11.566;2023-05-17T09:27:07;12.34;57.22
63202;DHT22;49296;48.188;11.566;2023-05-17T09:29:34;12.31;56.71
63202;DHT22;49296;48.188;11.566;2023-05-17T09:32:14;12.38;56.45
63202;DHT22;49296;48.188;11.566;2023-05-17T09:34:41;12.37;55.61
63202;DHT22;49296;48.188;11.566;2023-05-17T09:37:12;12.49;56.38
63202;DHT22;49296;48.188;11.566;2023-05-17T09:39:39;12.59;56.27
63202;DHT22;49296;48.188;11.566;2023-05-17T09:42:07;12.75;56.82
63202;DHT22;49296;48.188;11.566;2023-05-17T09:44:45;12.80;57.21
63202;DHT22;49296;48.188;11.566;2023-05-17T09:47:21;12.83;56.12
63202;DHT22;49296;48.188;11.566;2023-05-17T09:49:47;12.65;56.19
63202;DHT22;49296;48.188;11.566;2023-05-17T09:52:17;12.55;56.72
63202;DHT22;49296;48.188;11.566;2023-05-17T09:54:50;12.37;57.20
63202;DHT22;49296;48.188;11.566;2023-05-17T09:57:19;12.22;57.64
63202;DHT22;49296;48.188;11.566;2023-05-17T09:59:46;12.17;57.15
63202;DHT22;49296;48.188;11.566;2023-05-17T10:02:20;11.95;57.00
63202;DHT22;49296;48.188;11.566;2023-05-17T10:04:48;12.14;56.26
63202;DHT22;49296;48.188;11.566;2023-05-17T10:07:17;12.20;55.92
63202;DHT22;49296;48.188;11.566;2023-05-17T10:09:46;12.16;57.35
63202;DHT22;49296;48.188;11.566;2023-05-17T10:12:16;12.34;57.21
63202;DHT22;49296;48.188;11.566;2023-05-17T10:14:44;12.35;55.06
63202;DHT22;49296;48.188;11.566;2023-05-17T10:17:11;12.56;54.96
63202;DHT22;49296;48.188;11.566;2023-05-17T10:19:38;12.67;54.42
63202;DHT22;49296;48.188;11.566;2023-05-17T10:22:06;12.77;53.83
63202;DHT22;49296;48.188;11.566;2023-05-17T10:24:33;12.84;53.71
63202;DHT22;49296;48.188;11.566;2023-05-17T10:27:01;12.87;53.53
63202;DHT22;49296;48.188;11.566;2023-05-17T10:29:28;12.79;53.22
63202;DHT22;49296;48.188;11.566;2023-05-17T10:32:02;12.80;52.35
63202;DHT22;49296;48.188;11.566;2023-05-17T10:34:29;12.75;52.26
63202;DHT22;49296;48.188;11.566;2023-05-17T10:36:57;12.89;52.53
63202;DHT22;49296;48.188;11.566;2023-05-17T10:39:24;12.97;52.96
63202;DHT22;49296;48.188;11.566;2023-05-17T10:41:52;12.91;51.39
63202;DHT22;49296;48.188;11.566;2023-05-17T10:44:20;12.99;52.73
63202;DHT22;49296;48.188;11.566;2023-05-17T10:46:52;12.97;51.68
63202;DHT22;49296;48.188;11.566;2023-05-17T10:49:23;13.21;52.57
63202;DHT22;49296;48.188;11.566;2023-05-17T10:51:51;13.38;51.47
63202;DHT22;49296;48.188;11.566;2023-05-17T10:54:18;13.46;51.14
63202;DHT22;49296;48.188;11.566;2023-05-17T10:56:50;13.65;50.36
63202;DHT22;49296;48.188;11.566;2023-05-17T10:59:21;13.70;51.46
63202;DHT22;49296;48.188;11.566;2023-05-17T11:01:53;13.71;48.86
63202;DHT22;49296;48.188;11.566;2023-05-17T11:04:25;13.79;46.73
63202;DHT22;49296;48.188;11.566;2023-05-17T11:07:22;13.87;52.42
63202;DHT22;49296;48.188;11.566;2023-05-17T11:09:52;14.03;52.07
63202;DHT22;49296;48.188;11.566;2023-05-17T11:12:28;13.87;50.14
63202;DHT22;49296;48.188;11.566;2023-05-17T11:14:57;13.84;51.84
63202;DHT22;49296;48.188;11.566;2023-05-17T11:17:25;13.84;51.58
63202;DHT22;49296;48.188;11.566;2023-05-17T11:20:00;13.67;51.43
63202;DHT22;49296;48.188;11.566;2023-05-17T11:22:33;13.51;52.50
63202;DHT22;49296;48.188;11.566;2023-05-17T11:25:05;13.46;51.98
63202;DHT22;49296;48.188;11.566;2023-05-17T11:27:36;13.26;50.75
63202;DHT22;49296;48.188;11.566;2023-05-17T11:30:15;13.45;52.74
63202;DHT22;49296;48.188;11.566;2023-05-17T11:32:49;13.38;51.78
63202;DHT22;49296;48.188;11.566;2023-05-17T11:35:18;13.65;51.13
63202;DHT22;49296;48.188;11.566;2023-05-17T11:37:45;13.60;51.36
63202;DHT22;49296;48.188;11.566;2023-05-17T11:40:12;13.26;51.85
63202;DHT22;49296;48.188;11.566;2023-05-17T11:42:40;13.48;52.54
63202;DHT22;49296;48.188;11.566;2023-05-17T11:45:07;13.77;53.05
63202;DHT22;49296;48.188;11.566;2023-05-17T11:47:38;14.00;52.13
63202;DHT22;49296;48.188;11.566;2023-05-17T11:50:06;14.33;53.12
63202;DHT22;49296;48.188;11.566;2023-05-17T11:52:35;14.33;53.09
63202;DHT22;49296;48.188;11.566;2023-05-17T11:55:02;14.25;52.65
63202;DHT22;49296;48.188;11.566;2023-05-17T11:57:31;14.15;50.93
63202;DHT22;49296;48.188;11.566;2023-05-17T11:59:58;14.08;51.02
63202;DHT22;49296;48.188;11.566;2023-05-17T12:02:26;13.98;50.76
63202;DHT22;49296;48.188;11.566;2023-05-17T12:04:53;14.05;49.96
63202;DHT22;49296;48.188;11.566;2023-05-17T12:07:19;14.43;49.47
63202;DHT22;49296;48.188;11.566;2023-05-17T12:09:48;14.62;50.16
63202;DHT22;49296;48.188;11.566;2023-05-17T12:12:15;14.80;50.25
63202;DHT22;49296;48.188;11.566;2023-05-17T12:14:42;14.60;49.27
63202;DHT22;49296;48.188;11.566;2023-05-17T12:17:12;13.94;50.46
63202;DHT22;49296;48.188;11.566;2023-05-17T12:19:42;13.81;51.66
63202;DHT22;49296;48.188;11.566;2023-05-17T12:22:10;13.88;52.43
63202;DHT22;49296;48.188;11.566;2023-05-17T12:24:38;13.77;52.02
63202;DHT22;49296;48.188;11.566;2023-05-17T12:27:06;13.96;51.44
63202;DHT22;49296;48.188;11.566;2023-05-17T12:29:33;14.04;50.63
63202;DHT22;49296;48.188;11.566;2023-05-17T12:32:00;14.36;49.77
63202;DHT22;49296;48.188;11.566;2023-05-17T12:34:28;14.88;50.29
63202;DHT22;49296;48.188;11.566;2023-05-17T12:36:55;15.25;47.46
63202;DHT22;49296;48.188;11.566;2023-05-17T12:39:22;14.95;47.50
63202;DHT22;49296;48.188;11.566;2023-05-17T12:41:49;15.00;47.72
63202;DHT22;49296;48.188;11.566;2023-05-17T12:44:18;14.56;47.81
63202;DHT22;49296;48.188;11.566;2023-05-17T12:46:46;14.53;48.49
63202;DHT22;49296;48.188;11.566;2023-05-17T12:49:18;14.49;50.37
63202;DHT22;49296;48.188;11.566;2023-05-17T12:51:47;14.29;50.50
63202;DHT22;49296;48.188;11.566;2023-05-17T12:54:24;14.29;50.23
63202;DHT22;49296;48.188;11.566;2023-05-17T12:56:51;14.40;49.73
63202;DHT22;49296;48.188;11.566;2023-05-17T12:59:20;14.70;48.05
63202;DHT22;49296;48.188;11.566;2023-05-17T13:01:50;15.59;46.17
63202;DHT22;49296;48.188;11.566;2023-05-17T13:04:18;15.93;45.97
63202;DHT22;49296;48.188;11.566;2023-05-17T13:06:47;16.38;46.76
63202;DHT22;49296;48.188;11.566;2023-05-17T13:09:14;16.02;47.94
63202;DHT22;49296;48.188;11.566;2023-05-17T13:11:42;15.62;47.38
63202;DHT22;49296;48.188;11.566;2023-05-17T13:14:10;15.50;47.14
63202;DHT22;49296;48.188;11.566;2023-05-17T13:16:39;15.12;47.02
63202;DHT22;49296;48.188;11.566;2023-05-17T13:19:13;14.67;47.42
63202;DHT22;49296;48.188;11.566;2023-05-17T13:21:40;14.52;47.98
63202;DHT22;49296;48.188;11.566;2023-05-17T13:24:08;14.31;48.12
63202;DHT22;49296;48.188;11.566;2023-05-17T13:26:35;14.38;48.32
63202;DHT22;49296;48.188;11.566;2023-05-17T13:29:01;14.63;48.87
63202;DHT22;49296;48.188;11.566;2023-05-17T13:31:28;14.39;49.07
63202;DHT22;49296;48.188;11.566;2023-05-17T13:33:56;15.55;48.10
63202;DHT22;49296;48.188;11.566;2023-05-17T13:36:23;16.85;47.56
63202;DHT22;49296;48.188;11.566;2023-05-17T13:38:50;17.90;45.56
63202;DHT22;49296;48.188;11.566;2023-05-17T13:41:16;17.60;44.85
63202;DHT22;49296;48.188;11.566;2023-05-17T13:43:43;16.92;44.86
63202;DHT22;49296;48.188;11.566;2023-05-17T13:46:10;16.24;46.19
63202;DHT22;49296;48.188;11.566;2023-05-17T13:48:36;15.73;46.93
63202;DHT22;49296;48.188;11.566;2023-05-17T13:51:04;15.64;48.08
63202;DHT22;49296;48.188;11.566;2023-05-17T13:53:31;15.31;47.98
63202;DHT22;49296;48.188;11.566;2023-05-17T13:55:58;15.21;48.07
63202;DHT22;49296;48.188;11.566;2023-05-17T13:58:25;15.19;47.96
63202;DHT22;49296;48.188;11.566;2023-05-17T14:00:51;15.35;48.26
63202;DHT22;49296;48.188;11.566;2023-05-17T14:03:18;15.45;48.03
63202;DHT22;49296;48.188;11.566;2023-05-17T14:05:45;15.64;47.67
63202;DHT22;49296;48.188;11.566;2023-05-17T14:08:15;15.96;48.09
63202;DHT22;49296;48.188;11.566;2023-05-17T14:10:42;16.45;48.52
63202;DHT22;49296;48.188;11.566;2023-05-17T14:13:09;16.87;46.17
63202;DHT22;49296;48.188;11.566;2023-05-17T14:15:37;16.39;47.62
63202;DHT22;49296;48.188;11.566;2023-05-17T14:18:04;16.53;46.77
63202;DHT22;49296;48.188;11.566;2023-05-17T14:20:31;16.18;45.58
63202;DHT22;49296;48.188;11.566;2023-05-17T14:22:59;15.73;46.65
63202;DHT22;49296;48.188;11.566;2023-05-17T14:25:27;15.67;47.52
63202;DHT22;49296;48.188;11.566;2023-05-17T14:27:54;15.76;48.61
63202;DHT22;49296;48.188;11.566;2023-05-17T14:30:21;15.59;48.68
63202;DHT22;49296;48.188;11.566;2023-05-17T14:32:49;15.50;48.94
63202;DHT22;49296;48.188;11.566;2023-05-17T14:35:16;15.66;48.99
63202;DHT22;49296;48.188;11.566;2023-05-17T14:37:43;15.79;48.69
63202;DHT22;49296;48.188;11.566;2023-05-17T14:40:10;15.91;47.94
63202;DHT22;49296;48.188;11.566;2023-05-17T14:42:38;16.69;46.48
63202;DHT22;49296;48.188;11.566;2023-05-17T14:45:06;17.18;45.46
63202;DHT22;49296;48.188;11.566;2023-05-17T14:47:34;16.89;45.99
63202;DHT22;49296;48.188;11.566;2023-05-17T14:50:00;16.48;47.58
63202;DHT22;49296;48.188;11.566;2023-05-17T14:52:30;16.46;46.74
63202;DHT22;49296;48.188;11.566;2023-05-17T14:54:57;16.32;47.19
63202;DHT22;49296;48.188;11.566;2023-05-17T14:57:23;15.73;47.18
63202;DHT22;49296;48.188;11.566;2023-05-17T14:59:51;15.45;47.75
63202;DHT22;49296;48.188;11.566;2023-05-17T15:02:18;15.27;48.82
63202;DHT22;49296;48.188;11.566;2023-05-17T15:04:45;15.24;48.62
63202;DHT22;49296;48.188;11.566;2023-05-17T15:07:11;14.87;49.34
63202;DHT22;49296;48.188;11.566;2023-05-17T15:09:38;14.85;50.48
63202;DHT22;49296;48.188;11.566;2023-05-17T15:12:06;14.88;50.75
63202;DHT22;49296;48.188;11.566;2023-05-17T15:14:33;15.02;50.16
63202;DHT22;49296;48.188;11.566;2023-05-17T15:17:01;15.17;50.56
63202;DHT22;49296;48.188;11.566;2023-05-17T15:19:28;15.34;50.06
63202;DHT22;49296;48.188;11.566;2023-05-17T15:21:55;15.83;48.04
63202;DHT22;49296;48.188;11.566;2023-05-17T15:24:23;16.05;46.45
63202;DHT22;49296;48.188;11.566;2023-05-17T15:26:50;15.83;46.67